• Join FlightAware (Why Join?)
  • Login
  • US Flag 
12:24PM EST


 

Airport Tracker/Info


-or-


 

Live Flight TrackerFlight Track Log ✈ USC105 ✈ 25-Jun-2013 ✈ KDPA - KYIP

Flight Track Log - Related Links

Times and Time Zones

All times are in EDT time to prevent confusion due to time zone crossing. See the USC105 flight status page for this flight to view local times or setup timezone preferences in your user account.

Time Position Orientation Groundspeed Altitude Reporting Facility
EDT Latitude Longitude Course Direction KTS MPH feet Rate Location/Type
05:55AM 41.8667 -88.2500 83° East 119 137 2,000  Level Chicago TRACON
05:56AM 41.8333 -88.2500 180° South 121 139 3,200 1,020 Climbing Chicago TRACON
05:57AM 41.8139 -88.2406 160° South 119 137 3,700 900 Climbing Chicago Center
05:58AM 41.7831 -88.2164 150° Southeast 136 157 4,700 900 Climbing Chicago Center
05:59AM 41.7611 -88.1650 120° Southeast 166 191 5,600 600 Climbing Chicago Center
06:00AM 41.7617 -88.0950 89° East 186 214 6,000 180 Climbing Chicago Center
06:01AM 41.9462 -87.8104 83° East  Level Estimated
06:01AM 41.7642 -87.9989 88° East 214 246 6,000  Level Chicago Center
06:02AM 41.7678 -87.9169 87° East 220 253 6,000  Level Chicago Center
06:03AM 41.7744 -87.8347 84° East 221 254 6,100 600 Climbing Chicago Center
06:04AM 41.7806 -87.7669 83° East 188 216 7,300 1,020 Climbing Chicago Center
06:05AM 41.7906 -87.7025 78° East 179 206 8,200 780 Climbing Chicago Center
06:06AM 41.7978 -87.6350 82° East 183 211 8,900 360 Climbing Chicago Center
06:07AM 41.8047 -87.5508 84° East 223 257 9,000  Climbing Chicago Center
06:08AM 41.8094 -87.4650 86° East 232 267 8,900 -60 Descending Chicago Center
06:09AM 41.8153 -87.3811 85° East 230 265 8,900  Level Chicago Center
06:10AM 41.8211 -87.2942 85° East 232 267 8,900  Level Chicago Center
06:11AM 41.8297 -87.2111 82° East 229 264 9,000  Climbing Chicago Center
06:12AM 41.8361 -87.1258 84° East 230 265 8,900  Descending Chicago Center
06:13AM 41.8425 -87.0417 84° East 229 264 9,000  Climbing Chicago Center
06:14AM 41.8514 -86.9586 82° East 227 261 8,900 -60 Descending Chicago Center
06:15AM 41.8625 -86.8753 80° East 228 262 8,900  Level Chicago Center
06:16AM 41.8717 -86.7900 82° East 230 265 9,000  Climbing Chicago Center
06:17AM 41.8847 -86.7058 78° East 231 266 9,000  Level Chicago Center
06:18AM 41.8947 -86.6167 81° East 233 268 9,000  Level Chicago Center
06:19AM 41.9044 -86.5333 81° East 228 262 9,000 -60 Level Chicago Center
06:20AM 41.9144 -86.4481 81° East 229 264 8,900  Descending Chicago Center
06:21AM 41.9300 -86.3633 76° East 233 268 9,000  Climbing Chicago Center
06:22AM 41.9597 -86.2811 64° Northeast 242 278 9,000 -60 Level Chicago Center
06:23AM 41.9875 -86.2014 65° Northeast 238 274 8,900  Descending Chicago Center
06:24AM 42.0186 -86.1236 62° Northeast 236 272 9,000  Climbing Chicago Center
06:25AM 42.0483 -86.0447 63° Northeast 236 272 9,000  Level Chicago Center
06:26AM 42.0792 -85.9633 63° Northeast 242 278 9,000  Level Chicago Center
06:27AM 42.1103 -85.8831 62° Northeast 242 278 9,100  Climbing Chicago Center
06:28AM 42.1456 -85.7886 63° Northeast 237 273 9,000  Descending Chicago Center
06:29AM 42.1767 -85.7094 62° Northeast 238 274 9,100  Climbing Chicago Center
06:30AM 42.2058 -85.6311 63° Northeast 235 270 9,100  Level Chicago Center
06:31AM 42.2347 -85.5492 65° Northeast 238 274 9,100  Level Chicago Center
06:32AM 42.2586 -85.4664 69° East 238 274 9,100  Level Chicago Center
06:33AM 42.2825 -85.3939 66° East 238 274 9,100 -60 Level Chicago Center
06:34AM 42.2844 -85.3047 88° East 241 277 9,000 -60 Descending Chicago Center
06:35AM 42.2814 -85.2147 93° East 243 280 9,000  Level Chicago Center
06:36AM 42.2800 -85.1239 91° East 242 278 9,100  Climbing Chicago Center
06:37AM 42.2794 -85.0203 90° East 233 268 9,000 -60 Descending Chicago Center
06:38AM 42.2772 -84.9453 92° East 210 242 9,000  Level Chicago Center
06:39AM 42.2747 -84.8694 93° East 203 234 9,100  Climbing Chicago Center
06:40AM 42.2733 -84.7911 91° East 207 238 9,000  Descending Chicago Center
06:41AM 42.2719 -84.7119 91° East 210 242 9,100  Climbing Chicago Center
06:42AM 42.2711 -84.6311 91° East 214 246 9,100 -60 Level Chicago Center
06:43AM 42.2658 -84.5497 95° East 218 251 9,000  Descending Chicago Center
06:44AM 42.2653 -84.4753 91° East 205 236 9,100  Climbing Chicago Center
06:45AM 42.2642 -84.3964 91° East 208 239 9,000 -120 Descending Chicago Center
06:46AM 42.2628 -84.3514 92° East 213 245 9,000  Level Cleveland Center
06:46AM 42.2606 -84.2925 93° East 213 245 9,000 -480 Level Cleveland Center
06:47AM 42.2567 -84.2192 94° East 221 254 8,300 -960 Descending Cleveland Center
06:48AM 42.2553 -84.1294 91° East 236 272 7,200 -1,080 Descending Cleveland Center
06:50AM 42.2519 -84.0339 93° East 237 273 6,100 -1,080 Descending Cleveland Center
06:51AM 42.2506 -83.9411 91° East 234 269 5,000 -1,020 Descending Cleveland Center
06:52AM 42.2431 -83.8425 96° East 239 275 4,000 -780 Descending Cleveland Center
06:53AM 42.2394 -83.7442 93° East 228 262 3,300 -720 Descending Cleveland Center
06:54AM 42.2289 -83.6764 102° East 217 250 2,600 -840 Descending Cleveland Center
06:55AM 42.2142 -83.5972 104° East 210 242 1,800 -840 Descending Cleveland Center
06:57AM 42.2393 -83.5310 90° East  Level Estimated
07:04AM 42.2393 -83.5310 90° East  Level Estimated
07:05AM 42.2393 -83.5310 90° East  Level Estimated